sensor_id;sensor_type;location;lat;lon;timestamp;temperature;humidity
11264;DHT22;5689;48.798;9.070;2023-03-04T00:02:16;0.60;99.90
11264;DHT22;5689;48.798;9.070;2023-03-04T00:04:46;0.50;99.90
11264;DHT22;5689;48.798;9.070;2023-03-04T00:07:14;0.50;99.90
11264;DHT22;5689;48.798;9.070;2023-03-04T00:09:45;0.50;99.90
11264;DHT22;5689;48.798;9.070;2023-03-04T00:12:13;0.40;99.90
11264;DHT22;5689;48.798;9.070;2023-03-04T00:14:41;0.40;99.90
11264;DHT22;5689;48.798;9.070;2023-03-04T00:17:09;0.50;99.90
11264;DHT22;5689;48.798;9.070;2023-03-04T00:19:38;0.50;99.90
11264;DHT22;5689;48.798;9.070;2023-03-04T00:22:08;0.50;99.90
11264;DHT22;5689;48.798;9.070;2023-03-04T00:24:36;0.50;99.90
11264;DHT22;5689;48.798;9.070;2023-03-04T00:27:04;0.60;99.90
11264;DHT22;5689;48.798;9.070;2023-03-04T00:29:32;0.50;99.90
11264;DHT22;5689;48.798;9.070;2023-03-04T00:32:00;0.40;99.90
11264;DHT22;5689;48.798;9.070;2023-03-04T00:34:28;0.50;99.90
11264;DHT22;5689;48.798;9.070;2023-03-04T00:36:58;0.50;99.90
11264;DHT22;5689;48.798;9.070;2023-03-04T00:39:30;0.30;99.90
11264;DHT22;5689;48.798;9.070;2023-03-04T00:41:59;0.30;99.90
11264;DHT22;5689;48.798;9.070;2023-03-04T00:44:27;0.50;99.90
11264;DHT22;5689;48.798;9.070;2023-03-04T00:46:55;0.40;99.90
11264;DHT22;5689;48.798;9.070;2023-03-04T00:49:23;0.20;99.90
11264;DHT22;5689;48.798;9.070;2023-03-04T00:51:51;0.30;99.90
11264;DHT22;5689;48.798;9.070;2023-03-04T00:54:19;0.30;99.90
11264;DHT22;5689;48.798;9.070;2023-03-04T00:56:49;0.40;99.90
11264;DHT22;5689;48.798;9.070;2023-03-04T00:59:17;0.30;99.90
11264;DHT22;5689;48.798;9.070;2023-03-04T01:01:45;0.20;99.90
11264;DHT22;5689;48.798;9.070;2023-03-04T01:04:16;0.00;99.90
11264;DHT22;5689;48.798;9.070;2023-03-04T01:06:44;0.10;99.90
11264;DHT22;5689;48.798;9.070;2023-03-04T01:09:12;0.00;99.90
11264;DHT22;5689;48.798;9.070;2023-03-04T01:11:40;0.00;99.90
11264;DHT22;5689;48.798;9.070;2023-03-04T01:14:11;0.00;99.90
11264;DHT22;5689;48.798;9.070;2023-03-04T01:16:39;0.00;99.90
11264;DHT22;5689;48.798;9.070;2023-03-04T01:19:07;-0.10;99.90
11264;DHT22;5689;48.798;9.070;2023-03-04T01:21:35;-0.20;99.90
11264;DHT22;5689;48.798;9.070;2023-03-04T01:24:04;-0.10;99.90
11264;DHT22;5689;48.798;9.070;2023-03-04T01:26:32;-0.20;99.90
11264;DHT22;5689;48.798;9.070;2023-03-04T01:29:01;-0.10;99.90
11264;DHT22;5689;48.798;9.070;2023-03-04T01:31:31;-0.20;99.90
11264;DHT22;5689;48.798;9.070;2023-03-04T01:33:59;-0.20;99.90
11264;DHT22;5689;48.798;9.070;2023-03-04T01:36:27;-0.20;99.90
11264;DHT22;5689;48.798;9.070;2023-03-04T01:38:55;-0.30;99.90
11264;DHT22;5689;48.798;9.070;2023-03-04T01:41:24;-0.40;99.90
11264;DHT22;5689;48.798;9.070;2023-03-04T01:43:54;-0.50;99.90
11264;DHT22;5689;48.798;9.070;2023-03-04T01:46:23;-0.30;99.90
11264;DHT22;5689;48.798;9.070;2023-03-04T01:48:53;-0.30;99.90
11264;DHT22;5689;48.798;9.070;2023-03-04T01:51:21;-0.40;99.90
11264;DHT22;5689;48.798;9.070;2023-03-04T01:53:50;-0.40;99.90
11264;DHT22;5689;48.798;9.070;2023-03-04T01:56:23;-0.50;99.90
11264;DHT22;5689;48.798;9.070;2023-03-04T01:59:11;-0.50;99.90
11264;DHT22;5689;48.798;9.070;2023-03-04T02:01:42;-0.50;99.90
11264;DHT22;5689;48.798;9.070;2023-03-04T02:04:12;-0.30;99.90
11264;DHT22;5689;48.798;9.070;2023-03-04T02:06:42;-0.30;99.90
11264;DHT22;5689;48.798;9.070;2023-03-04T02:09:10;-0.40;99.90
11264;DHT22;5689;48.798;9.070;2023-03-04T02:11:39;-0.60;99.90
11264;DHT22;5689;48.798;9.070;2023-03-04T02:14:08;-0.60;99.90
11264;DHT22;5689;48.798;9.070;2023-03-04T02:16:37;-0.70;99.90
11264;DHT22;5689;48.798;9.070;2023-03-04T02:19:13;-0.80;99.90
11264;DHT22;5689;48.798;9.070;2023-03-04T02:21:42;-0.80;99.90
11264;DHT22;5689;48.798;9.070;2023-03-04T02:24:14;-0.90;99.90
11264;DHT22;5689;48.798;9.070;2023-03-04T02:26:46;-0.70;99.90
11264;DHT22;5689;48.798;9.070;2023-03-04T02:29:16;-0.90;99.90
11264;DHT22;5689;48.798;9.070;2023-03-04T02:31:46;-1.00;99.90
11264;DHT22;5689;48.798;9.070;2023-03-04T02:34:18;-0.80;99.90
11264;DHT22;5689;48.798;9.070;2023-03-04T02:36:48;-0.90;99.90
11264;DHT22;5689;48.798;9.070;2023-03-04T02:39:27;-1.00;99.90
11264;DHT22;5689;48.798;9.070;2023-03-04T02:41:57;-0.80;99.90
11264;DHT22;5689;48.798;9.070;2023-03-04T02:44:28;-0.80;99.90
11264;DHT22;5689;48.798;9.070;2023-03-04T02:46:58;-0.70;99.90
11264;DHT22;5689;48.798;9.070;2023-03-04T02:49:28;-0.80;99.90
11264;DHT22;5689;48.798;9.070;2023-03-04T02:51:59;-0.90;99.90
11264;DHT22;5689;48.798;9.070;2023-03-04T02:54:28;-1.00;99.90
11264;DHT22;5689;48.798;9.070;2023-03-04T02:56:59;-1.10;99.90
11264;DHT22;5689;48.798;9.070;2023-03-04T02:59:28;-1.10;99.90
11264;DHT22;5689;48.798;9.070;2023-03-04T03:01:56;-1.20;99.90
11264;DHT22;5689;48.798;9.070;2023-03-04T03:04:25;-1.20;99.90
11264;DHT22;5689;48.798;9.070;2023-03-04T03:06:54;-1.20;99.90
11264;DHT22;5689;48.798;9.070;2023-03-04T03:09:24;-1.20;99.90
11264;DHT22;5689;48.798;9.070;2023-03-04T03:11:52;-1.10;99.90
11264;DHT22;5689;48.798;9.070;2023-03-04T03:14:22;-1.00;99.90
11264;DHT22;5689;48.798;9.070;2023-03-04T03:16:51;-1.00;99.90
11264;DHT22;5689;48.798;9.070;2023-03-04T03:19:19;-0.90;99.90
11264;DHT22;5689;48.798;9.070;2023-03-04T03:21:47;-1.00;99.90
11264;DHT22;5689;48.798;9.070;2023-03-04T03:24:15;-1.00;99.90
11264;DHT22;5689;48.798;9.070;2023-03-04T03:26:45;-1.10;99.90
11264;DHT22;5689;48.798;9.070;2023-03-04T03:29:13;-1.10;99.90
11264;DHT22;5689;48.798;9.070;2023-03-04T03:31:43;-1.10;99.90
11264;DHT22;5689;48.798;9.070;2023-03-04T03:34:11;-1.00;99.90
11264;DHT22;5689;48.798;9.070;2023-03-04T03:36:40;-1.20;99.90
11264;DHT22;5689;48.798;9.070;2023-03-04T03:39:08;-1.30;99.90
11264;DHT22;5689;48.798;9.070;2023-03-04T03:41:37;-1.30;99.90
11264;DHT22;5689;48.798;9.070;2023-03-04T03:44:05;-1.30;99.90
11264;DHT22;5689;48.798;9.070;2023-03-04T03:46:33;-1.30;99.90
11264;DHT22;5689;48.798;9.070;2023-03-04T03:49:03;-1.10;99.90
11264;DHT22;5689;48.798;9.070;2023-03-04T03:51:31;-1.10;99.90
11264;DHT22;5689;48.798;9.070;2023-03-04T03:53:59;-1.10;99.90
11264;DHT22;5689;48.798;9.070;2023-03-04T03:56:27;-1.20;99.90
11264;DHT22;5689;48.798;9.070;2023-03-04T03:58:55;-1.10;99.90
11264;DHT22;5689;48.798;9.070;2023-03-04T04:01:23;-1.10;99.90
11264;DHT22;5689;48.798;9.070;2023-03-04T04:03:52;-1.20;99.90
11264;DHT22;5689;48.798;9.070;2023-03-04T04:06:21;-1.40;99.90
11264;DHT22;5689;48.798;9.070;2023-03-04T04:08:49;-1.50;99.90
11264;DHT22;5689;48.798;9.070;2023-03-04T04:11:18;-1.60;99.90
11264;DHT22;5689;48.798;9.070;2023-03-04T04:13:46;-1.50;99.90
11264;DHT22;5689;48.798;9.070;2023-03-04T04:16:14;-1.60;99.90
11264;DHT22;5689;48.798;9.070;2023-03-04T04:18:42;-1.70;99.90
11264;DHT22;5689;48.798;9.070;2023-03-04T04:21:11;-1.70;99.90
11264;DHT22;5689;48.798;9.070;2023-03-04T04:23:41;-1.60;99.90
11264;DHT22;5689;48.798;9.070;2023-03-04T04:26:09;-1.70;99.90
11264;DHT22;5689;48.798;9.070;2023-03-04T04:28:38;-1.60;99.90
11264;DHT22;5689;48.798;9.070;2023-03-04T04:31:06;-1.50;99.90
11264;DHT22;5689;48.798;9.070;2023-03-04T04:33:35;-1.50;99.90
11264;DHT22;5689;48.798;9.070;2023-03-04T04:36:04;-1.70;99.90
11264;DHT22;5689;48.798;9.070;2023-03-04T04:38:32;-1.70;99.90
11264;DHT22;5689;48.798;9.070;2023-03-04T04:41:02;-1.70;99.90
11264;DHT22;5689;48.798;9.070;2023-03-04T04:43:30;-1.80;99.90
11264;DHT22;5689;48.798;9.070;2023-03-04T04:45:59;-1.90;99.90
11264;DHT22;5689;48.798;9.070;2023-03-04T04:48:27;-2.00;99.90
11264;DHT22;5689;48.798;9.070;2023-03-04T04:50:55;-2.00;99.90
11264;DHT22;5689;48.798;9.070;2023-03-04T04:53:23;-2.10;99.90
11264;DHT22;5689;48.798;9.070;2023-03-04T04:55:53;-2.10;99.90
11264;DHT22;5689;48.798;9.070;2023-03-04T04:58:31;-2.00;99.90
11264;DHT22;5689;48.798;9.070;2023-03-04T05:00:59;-2.00;99.90
11264;DHT22;5689;48.798;9.070;2023-03-04T05:03:27;-2.20;99.90
11264;DHT22;5689;48.798;9.070;2023-03-04T05:05:55;-2.20;99.90
11264;DHT22;5689;48.798;9.070;2023-03-04T05:08:23;-2.10;99.90
11264;DHT22;5689;48.798;9.070;2023-03-04T05:10:52;-2.20;99.90
11264;DHT22;5689;48.798;9.070;2023-03-04T05:13:20;-2.20;99.90
11264;DHT22;5689;48.798;9.070;2023-03-04T05:15:52;-2.30;99.90
11264;DHT22;5689;48.798;9.070;2023-03-04T05:18:20;-2.50;99.90
11264;DHT22;5689;48.798;9.070;2023-03-04T05:20:49;-2.50;99.90
11264;DHT22;5689;48.798;9.070;2023-03-04T05:23:18;-2.50;99.90
11264;DHT22;5689;48.798;9.070;2023-03-04T05:25:56;-2.40;99.90
11264;DHT22;5689;48.798;9.070;2023-03-04T05:28:25;-2.40;99.90
11264;DHT22;5689;48.798;9.070;2023-03-04T05:30:54;-2.40;99.90
11264;DHT22;5689;48.798;9.070;2023-03-04T05:33:22;-2.40;99.90
11264;DHT22;5689;48.798;9.070;2023-03-04T05:35:50;-2.50;99.90
11264;DHT22;5689;48.798;9.070;2023-03-04T05:38:21;-2.40;99.90
11264;DHT22;5689;48.798;9.070;2023-03-04T05:40:55;-2.40;99.90
11264;DHT22;5689;48.798;9.070;2023-03-04T05:43:23;-2.50;99.90
11264;DHT22;5689;48.798;9.070;2023-03-04T05:45:52;-2.30;99.90
11264;DHT22;5689;48.798;9.070;2023-03-04T05:48:21;-2.40;99.90
11264;DHT22;5689;48.798;9.070;2023-03-04T05:50:53;-2.50;99.90
11264;DHT22;5689;48.798;9.070;2023-03-04T05:53:25;-2.50;99.90
11264;DHT22;5689;48.798;9.070;2023-03-04T05:55:53;-2.40;99.90
11264;DHT22;5689;48.798;9.070;2023-03-04T05:58:22;-2.30;99.90
11264;DHT22;5689;48.798;9.070;2023-03-04T06:00:50;-2.30;99.90
11264;DHT22;5689;48.798;9.070;2023-03-04T06:03:20;-2.30;99.90
11264;DHT22;5689;48.798;9.070;2023-03-04T06:05:49;-2.10;99.90
11264;DHT22;5689;48.798;9.070;2023-03-04T06:08:17;-2.10;99.90
11264;DHT22;5689;48.798;9.070;2023-03-04T06:10:45;-2.20;99.90
11264;DHT22;5689;48.798;9.070;2023-03-04T06:13:13;-2.10;99.90
11264;DHT22;5689;48.798;9.070;2023-03-04T06:15:41;-2.10;99.90
11264;DHT22;5689;48.798;9.070;2023-03-04T06:18:09;-2.10;99.90
11264;DHT22;5689;48.798;9.070;2023-03-04T06:20:39;-2.10;99.90
11264;DHT22;5689;48.798;9.070;2023-03-04T06:23:07;-2.10;99.90
11264;DHT22;5689;48.798;9.070;2023-03-04T06:25:36;-1.70;99.90
11264;DHT22;5689;48.798;9.070;2023-03-04T06:28:04;-1.60;99.90
11264;DHT22;5689;48.798;9.070;2023-03-04T06:30:32;-1.40;99.90
11264;DHT22;5689;48.798;9.070;2023-03-04T06:33:00;-1.20;99.90
11264;DHT22;5689;48.798;9.070;2023-03-04T06:35:28;-1.40;99.90
11264;DHT22;5689;48.798;9.070;2023-03-04T06:37:57;-1.20;99.90
11264;DHT22;5689;48.798;9.070;2023-03-04T06:40:25;-1.00;99.90
11264;DHT22;5689;48.798;9.070;2023-03-04T06:42:53;-0.90;99.90
11264;DHT22;5689;48.798;9.070;2023-03-04T06:45:21;-0.70;99.90
11264;DHT22;5689;48.798;9.070;2023-03-04T06:47:49;-0.60;99.90
11264;DHT22;5689;48.798;9.070;2023-03-04T06:50:18;-0.50;99.90
11264;DHT22;5689;48.798;9.070;2023-03-04T06:52:46;-0.30;99.90
11264;DHT22;5689;48.798;9.070;2023-03-04T06:55:17;-0.30;99.90
11264;DHT22;5689;48.798;9.070;2023-03-04T06:57:45;-0.20;99.90
11264;DHT22;5689;48.798;9.070;2023-03-04T07:00:15;-0.40;99.90
11264;DHT22;5689;48.798;9.070;2023-03-04T07:02:43;-0.40;99.90
11264;DHT22;5689;48.798;9.070;2023-03-04T07:05:11;-0.40;99.90
11264;DHT22;5689;48.798;9.070;2023-03-04T07:07:39;-0.30;99.90
11264;DHT22;5689;48.798;9.070;2023-03-04T07:10:09;-0.30;99.90
11264;DHT22;5689;48.798;9.070;2023-03-04T07:12:38;-0.20;99.90
11264;DHT22;5689;48.798;9.070;2023-03-04T07:15:07;-0.20;99.90
11264;DHT22;5689;48.798;9.070;2023-03-04T07:17:35;-0.10;99.90
11264;DHT22;5689;48.798;9.070;2023-03-04T07:20:04;-0.10;99.90
11264;DHT22;5689;48.798;9.070;2023-03-04T07:22:32;0.00;99.90
11264;DHT22;5689;48.798;9.070;2023-03-04T07:25:00;0.20;99.90
11264;DHT22;5689;48.798;9.070;2023-03-04T07:27:28;0.20;99.90
11264;DHT22;5689;48.798;9.070;2023-03-04T07:29:58;0.10;99.90
11264;DHT22;5689;48.798;9.070;2023-03-04T07:32:26;0.10;99.90
11264;DHT22;5689;48.798;9.070;2023-03-04T07:34:54;0.20;99.90
11264;DHT22;5689;48.798;9.070;2023-03-04T07:37:22;0.30;99.90
11264;DHT22;5689;48.798;9.070;2023-03-04T07:39:50;0.20;99.90
11264;DHT22;5689;48.798;9.070;2023-03-04T07:42:18;0.30;99.90
11264;DHT22;5689;48.798;9.070;2023-03-04T07:44:52;0.70;99.90
11264;DHT22;5689;48.798;9.070;2023-03-04T07:47:22;0.60;99.90
11264;DHT22;5689;48.798;9.070;2023-03-04T07:49:51;0.40;99.90
11264;DHT22;5689;48.798;9.070;2023-03-04T07:52:19;0.50;99.90
11264;DHT22;5689;48.798;9.070;2023-03-04T07:54:47;0.60;99.90
11264;DHT22;5689;48.798;9.070;2023-03-04T07:57:15;0.80;99.90
11264;DHT22;5689;48.798;9.070;2023-03-04T07:59:43;0.40;99.90
11264;DHT22;5689;48.798;9.070;2023-03-04T08:02:11;0.40;99.90
11264;DHT22;5689;48.798;9.070;2023-03-04T08:04:42;0.40;99.90
11264;DHT22;5689;48.798;9.070;2023-03-04T08:07:10;0.30;99.90
11264;DHT22;5689;48.798;9.070;2023-03-04T08:09:38;0.50;99.90
11264;DHT22;5689;48.798;9.070;2023-03-04T08:12:06;0.60;99.90
11264;DHT22;5689;48.798;9.070;2023-03-04T08:14:34;0.70;99.90
11264;DHT22;5689;48.798;9.070;2023-03-04T08:17:02;0.50;99.90
11264;DHT22;5689;48.798;9.070;2023-03-04T08:19:30;0.50;99.90
11264;DHT22;5689;48.798;9.070;2023-03-04T08:22:00;0.60;99.90
11264;DHT22;5689;48.798;9.070;2023-03-04T08:24:28;0.60;99.90
11264;DHT22;5689;48.798;9.070;2023-03-04T08:26:56;0.60;99.90
11264;DHT22;5689;48.798;9.070;2023-03-04T08:29:24;0.70;99.90
11264;DHT22;5689;48.798;9.070;2023-03-04T08:31:53;0.50;99.90
11264;DHT22;5689;48.798;9.070;2023-03-04T08:34:25;0.40;99.90
11264;DHT22;5689;48.798;9.070;2023-03-04T08:36:53;0.50;99.90
11264;DHT22;5689;48.798;9.070;2023-03-04T08:39:23;0.50;99.90
11264;DHT22;5689;48.798;9.070;2023-03-04T08:41:51;0.70;99.90
11264;DHT22;5689;48.798;9.070;2023-03-04T08:44:19;0.60;99.90
11264;DHT22;5689;48.798;9.070;2023-03-04T08:46:47;0.60;99.90
11264;DHT22;5689;48.798;9.070;2023-03-04T08:49:15;0.60;99.90
11264;DHT22;5689;48.798;9.070;2023-03-04T08:51:43;0.70;99.90
11264;DHT22;5689;48.798;9.070;2023-03-04T08:54:11;0.80;99.90
11264;DHT22;5689;48.798;9.070;2023-03-04T08:56:41;0.90;99.90
11264;DHT22;5689;48.798;9.070;2023-03-04T08:59:09;0.90;99.90
11264;DHT22;5689;48.798;9.070;2023-03-04T09:01:37;1.00;99.90
11264;DHT22;5689;48.798;9.070;2023-03-04T09:04:05;1.00;99.90
11264;DHT22;5689;48.798;9.070;2023-03-04T09:06:34;1.20;99.90
11264;DHT22;5689;48.798;9.070;2023-03-04T09:09:02;1.40;99.90
11264;DHT22;5689;48.798;9.070;2023-03-04T09:11:30;1.40;99.90
11264;DHT22;5689;48.798;9.070;2023-03-04T09:14:00;1.40;99.90
11264;DHT22;5689;48.798;9.070;2023-03-04T09:16:28;1.20;99.90
11264;DHT22;5689;48.798;9.070;2023-03-04T09:18:57;1.30;99.90
11264;DHT22;5689;48.798;9.070;2023-03-04T09:21:26;1.30;99.90
11264;DHT22;5689;48.798;9.070;2023-03-04T09:23:54;1.50;99.90
11264;DHT22;5689;48.798;9.070;2023-03-04T09:26:24;1.60;99.90
11264;DHT22;5689;48.798;9.070;2023-03-04T09:28:53;1.50;99.90
11264;DHT22;5689;48.798;9.070;2023-03-04T09:31:24;1.70;99.90
11264;DHT22;5689;48.798;9.070;2023-03-04T09:33:53;1.60;99.90
11264;DHT22;5689;48.798;9.070;2023-03-04T09:36:21;2.00;99.90
11264;DHT22;5689;48.798;9.070;2023-03-04T09:38:50;2.00;99.90
11264;DHT22;5689;48.798;9.070;2023-03-04T09:41:20;2.20;99.90
11264;DHT22;5689;48.798;9.070;2023-03-04T09:43:49;2.60;99.90
11264;DHT22;5689;48.798;9.070;2023-03-04T09:46:25;2.90;99.90
11264;DHT22;5689;48.798;9.070;2023-03-04T09:48:56;3.00;99.90
11264;DHT22;5689;48.798;9.070;2023-03-04T09:51:39;3.30;99.90
11264;DHT22;5689;48.798;9.070;2023-03-04T09:54:10;3.50;99.90
11264;DHT22;5689;48.798;9.070;2023-03-04T09:56:41;3.30;99.90
11264;DHT22;5689;48.798;9.070;2023-03-04T09:59:16;3.50;99.90
11264;DHT22;5689;48.798;9.070;2023-03-04T10:01:49;3.60;99.90
11264;DHT22;5689;48.798;9.070;2023-03-04T10:04:28;3.40;99.90
11264;DHT22;5689;48.798;9.070;2023-03-04T10:06:58;3.10;99.90
11264;DHT22;5689;48.798;9.070;2023-03-04T10:09:30;3.20;99.90
11264;DHT22;5689;48.798;9.070;2023-03-04T10:12:02;2.90;99.90
11264;DHT22;5689;48.798;9.070;2023-03-04T10:14:37;2.70;99.90
11264;DHT22;5689;48.798;9.070;2023-03-04T10:17:13;2.60;99.90
11264;DHT22;5689;48.798;9.070;2023-03-04T10:19:51;2.60;99.90
11264;DHT22;5689;48.798;9.070;2023-03-04T10:22:26;2.50;99.90
11264;DHT22;5689;48.798;9.070;2023-03-04T10:24:57;2.50;99.90
11264;DHT22;5689;48.798;9.070;2023-03-04T10:27:26;2.50;99.90
11264;DHT22;5689;48.798;9.070;2023-03-04T10:29:57;2.50;99.90
11264;DHT22;5689;48.798;9.070;2023-03-04T10:32:26;2.60;99.90
11264;DHT22;5689;48.798;9.070;2023-03-04T10:34:54;2.70;99.90
11264;DHT22;5689;48.798;9.070;2023-03-04T10:37:22;2.60;99.90
11264;DHT22;5689;48.798;9.070;2023-03-04T10:39:51;2.50;99.90
11264;DHT22;5689;48.798;9.070;2023-03-04T10:42:27;2.60;99.90
11264;DHT22;5689;48.798;9.070;2023-03-04T10:45:03;2.80;99.90
11264;DHT22;5689;48.798;9.070;2023-03-04T10:47:33;3.10;99.90
11264;DHT22;5689;48.798;9.070;2023-03-04T10:50:03;3.00;99.90
11264;DHT22;5689;48.798;9.070;2023-03-04T10:52:35;3.20;99.90
11264;DHT22;5689;48.798;9.070;2023-03-04T10:55:12;3.00;99.90
11264;DHT22;5689;48.798;9.070;2023-03-04T10:57:43;2.90;99.90
11264;DHT22;5689;48.798;9.070;2023-03-04T11:00:26;2.90;99.90
11264;DHT22;5689;48.798;9.070;2023-03-04T11:03:27;3.00;99.90
11264;DHT22;5689;48.798;9.070;2023-03-04T11:06:18;3.20;99.90
11264;DHT22;5689;48.798;9.070;2023-03-04T11:08:53;3.30;99.90
11264;DHT22;5689;48.798;9.070;2023-03-04T11:11:24;3.60;99.90
11264;DHT22;5689;48.798;9.070;2023-03-04T11:13:55;3.80;99.90
11264;DHT22;5689;48.798;9.070;2023-03-04T11:16:27;3.50;99.90
11264;DHT22;5689;48.798;9.070;2023-03-04T11:19:02;3.30;99.90
11264;DHT22;5689;48.798;9.070;2023-03-04T11:21:37;3.30;99.90
11264;DHT22;5689;48.798;9.070;2023-03-04T11:24:12;3.00;99.90
11264;DHT22;5689;48.798;9.070;2023-03-04T11:26:57;3.10;99.90
11264;DHT22;5689;48.798;9.070;2023-03-04T11:29:29;3.30;99.90
11264;DHT22;5689;48.798;9.070;2023-03-04T11:32:03;3.30;99.90
11264;DHT22;5689;48.798;9.070;2023-03-04T11:34:38;3.40;99.90
11264;DHT22;5689;48.798;9.070;2023-03-04T11:37:12;3.20;99.90
11264;DHT22;5689;48.798;9.070;2023-03-04T11:39:46;3.00;99.90
11264;DHT22;5689;48.798;9.070;2023-03-04T11:42:24;3.00;99.90
11264;DHT22;5689;48.798;9.070;2023-03-04T11:44:56;3.10;99.90
11264;DHT22;5689;48.798;9.070;2023-03-04T11:47:44;3.00;99.90
11264;DHT22;5689;48.798;9.070;2023-03-04T11:50:26;3.00;99.90
11264;DHT22;5689;48.798;9.070;2023-03-04T11:53:22;3.10;99.90
11264;DHT22;5689;48.798;9.070;2023-03-04T11:56:00;3.20;99.90
11264;DHT22;5689;48.798;9.070;2023-03-04T11:58:48;3.20;99.90
11264;DHT22;5689;48.798;9.070;2023-03-04T12:01:25;3.00;99.90
11264;DHT22;5689;48.798;9.070;2023-03-04T12:04:16;3.00;99.90
11264;DHT22;5689;48.798;9.070;2023-03-04T12:07:01;3.20;99.90
11264;DHT22;5689;48.798;9.070;2023-03-04T12:09:40;3.30;99.90
11264;DHT22;5689;48.798;9.070;2023-03-04T12:12:23;3.30;99.90
11264;DHT22;5689;48.798;9.070;2023-03-04T12:15:01;3.10;99.90
11264;DHT22;5689;48.798;9.070;2023-03-04T12:17:38;3.20;99.90
11264;DHT22;5689;48.798;9.070;2023-03-04T12:20:36;3.10;99.90
11264;DHT22;5689;48.798;9.070;2023-03-04T12:23:19;3.40;99.90
11264;DHT22;5689;48.798;9.070;2023-03-04T12:25:57;3.30;99.90
11264;DHT22;5689;48.798;9.070;2023-03-04T12:28:39;3.20;99.90
11264;DHT22;5689;48.798;9.070;2023-03-04T12:31:22;3.20;99.90
11264;DHT22;5689;48.798;9.070;2023-03-04T12:34:06;3.20;99.90
11264;DHT22;5689;48.798;9.070;2023-03-04T12:36:42;3.10;99.90
11264;DHT22;5689;48.798;9.070;2023-03-04T12:39:22;2.90;99.90
11264;DHT22;5689;48.798;9.070;2023-03-04T12:41:58;2.90;99.90
11264;DHT22;5689;48.798;9.070;2023-03-04T12:44:31;3.00;99.90
11264;DHT22;5689;48.798;9.070;2023-03-04T12:47:16;3.00;99.90
11264;DHT22;5689;48.798;9.070;2023-03-04T12:49:58;2.90;99.90
11264;DHT22;5689;48.798;9.070;2023-03-04T12:52:36;3.00;99.90
11264;DHT22;5689;48.798;9.070;2023-03-04T12:55:13;3.10;99.90
11264;DHT22;5689;48.798;9.070;2023-03-04T12:57:42;3.20;99.90
11264;DHT22;5689;48.798;9.070;2023-03-04T13:00:26;3.00;99.90
11264;DHT22;5689;48.798;9.070;2023-03-04T13:03:07;2.90;99.90
11264;DHT22;5689;48.798;9.070;2023-03-04T13:05:56;2.90;99.90
11264;DHT22;5689;48.798;9.070;2023-03-04T13:08:34;3.20;99.90
11264;DHT22;5689;48.798;9.070;2023-03-04T13:11:42;3.00;99.90
11264;DHT22;5689;48.798;9.070;2023-03-04T13:14:26;3.00;99.90
11264;DHT22;5689;48.798;9.070;2023-03-04T13:16:55;2.90;99.90
11264;DHT22;5689;48.798;9.070;2023-03-04T13:19:49;2.90;99.90
11264;DHT22;5689;48.798;9.070;2023-03-04T13:22:29;2.80;99.90
11264;DHT22;5689;48.798;9.070;2023-03-04T13:25:23;2.80;99.90
11264;DHT22;5689;48.798;9.070;2023-03-04T13:28:11;2.80;99.90
11264;DHT22;5689;48.798;9.070;2023-03-04T13:34:09;2.70;99.90
11264;DHT22;5689;48.798;9.070;2023-03-04T13:36:55;2.90;99.90
11264;DHT22;5689;48.798;9.070;2023-03-04T13:39:32;3.00;99.90
11264;DHT22;5689;48.798;9.070;2023-03-04T13:45:00;2.80;99.90
11264;DHT22;5689;48.798;9.070;2023-03-04T13:47:49;2.70;99.90
11264;DHT22;5689;48.798;9.070;2023-03-04T13:50:45;2.90;99.90
11264;DHT22;5689;48.798;9.070;2023-03-04T13:53:39;2.90;99.90
11264;DHT22;5689;48.798;9.070;2023-03-04T13:59:09;2.90;99.90
11264;DHT22;5689;48.798;9.070;2023-03-04T14:02:02;2.90;99.90
11264;DHT22;5689;48.798;9.070;2023-03-04T14:04:38;2.80;99.90
11264;DHT22;5689;48.798;9.070;2023-03-04T14:07:19;2.90;99.90
11264;DHT22;5689;48.798;9.070;2023-03-04T14:09:59;2.80;99.90
11264;DHT22;5689;48.798;9.070;2023-03-04T14:12:29;2.70;99.90
11264;DHT22;5689;48.798;9.070;2023-03-04T14:14:59;2.70;99.90
11264;DHT22;5689;48.798;9.070;2023-03-04T14:17:32;2.80;99.90
11264;DHT22;5689;48.798;9.070;2023-03-04T14:20:01;2.80;99.90
11264;DHT22;5689;48.798;9.070;2023-03-04T14:22:32;2.80;99.90
11264;DHT22;5689;48.798;9.070;2023-03-04T14:25:02;2.80;99.90
11264;DHT22;5689;48.798;9.070;2023-03-04T14:27:33;2.70;99.90
11264;DHT22;5689;48.798;9.070;2023-03-04T14:30:04;2.70;99.90
11264;DHT22;5689;48.798;9.070;2023-03-04T14:32:33;2.70;99.90
11264;DHT22;5689;48.798;9.070;2023-03-04T14:35:03;2.80;99.90
11264;DHT22;5689;48.798;9.070;2023-03-04T14:37:37;2.70;99.90
11264;DHT22;5689;48.798;9.070;2023-03-04T14:40:18;2.60;99.90
11264;DHT22;5689;48.798;9.070;2023-03-04T14:42:47;2.60;99.90
11264;DHT22;5689;48.798;9.070;2023-03-04T14:45:17;2.70;99.90
11264;DHT22;5689;48.798;9.070;2023-03-04T14:47:46;2.70;99.90
11264;DHT22;5689;48.798;9.070;2023-03-04T14:52:45;2.70;99.90
11264;DHT22;5689;48.798;9.070;2023-03-04T14:55:19;2.50;99.90
11264;DHT22;5689;48.798;9.070;2023-03-04T14:57:49;2.50;99.90
11264;DHT22;5689;48.798;9.070;2023-03-04T15:00:29;2.60;99.90
11264;DHT22;5689;48.798;9.070;2023-03-04T15:03:01;2.60;99.90
11264;DHT22;5689;48.798;9.070;2023-03-04T15:05:31;2.50;99.90
11264;DHT22;5689;48.798;9.070;2023-03-04T15:08:02;2.50;99.90
11264;DHT22;5689;48.798;9.070;2023-03-04T15:10:33;2.50;99.90
11264;DHT22;5689;48.798;9.070;2023-03-04T15:13:04;2.40;99.90
11264;DHT22;5689;48.798;9.070;2023-03-04T15:15:38;2.60;99.90
11264;DHT22;5689;48.798;9.070;2023-03-04T15:18:21;2.70;99.90
11264;DHT22;5689;48.798;9.070;2023-03-04T15:20:57;2.60;99.90
11264;DHT22;5689;48.798;9.070;2023-03-04T15:23:27;2.60;99.90
11264;DHT22;5689;48.798;9.070;2023-03-04T15:25:57;2.70;99.90
11264;DHT22;5689;48.798;9.070;2023-03-04T15:28:28;2.70;99.90
11264;DHT22;5689;48.798;9.070;2023-03-04T15:30:57;2.70;99.90
11264;DHT22;5689;48.798;9.070;2023-03-04T15:33:26;2.70;99.90
11264;DHT22;5689;48.798;9.070;2023-03-04T15:35:58;2.60;99.90
11264;DHT22;5689;48.798;9.070;2023-03-04T15:38:27;2.70;99.90
11264;DHT22;5689;48.798;9.070;2023-03-04T15:40:56;2.60;99.90
11264;DHT22;5689;48.798;9.070;2023-03-04T15:43:25;2.60;99.90
11264;DHT22;5689;48.798;9.070;2023-03-04T15:45:53;2.70;99.90
11264;DHT22;5689;48.798;9.070;2023-03-04T15:48:21;2.70;99.90
11264;DHT22;5689;48.798;9.070;2023-03-04T15:50:54;2.70;99.90
11264;DHT22;5689;48.798;9.070;2023-03-04T15:53:26;2.70;99.90
11264;DHT22;5689;48.798;9.070;2023-03-04T15:55:55;2.70;99.90
11264;DHT22;5689;48.798;9.070;2023-03-04T15:58:23;2.60;99.90
11264;DHT22;5689;48.798;9.070;2023-03-04T16:00:52;2.60;99.90
11264;DHT22;5689;48.798;9.070;2023-03-04T16:03:20;2.70;99.90
11264;DHT22;5689;48.798;9.070;2023-03-04T16:05:50;2.60;99.90
11264;DHT22;5689;48.798;9.070;2023-03-04T16:08:20;2.60;99.90
11264;DHT22;5689;48.798;9.070;2023-03-04T16:10:51;2.60;99.90
11264;DHT22;5689;48.798;9.070;2023-03-04T16:13:20;2.50;99.90
11264;DHT22;5689;48.798;9.070;2023-03-04T16:15:49;2.50;99.90
11264;DHT22;5689;48.798;9.070;2023-03-04T16:18:17;2.60;99.90
11264;DHT22;5689;48.798;9.070;2023-03-04T16:20:47;2.60;99.90
11264;DHT22;5689;48.798;9.070;2023-03-04T16:23:20;2.60;99.90
11264;DHT22;5689;48.798;9.070;2023-03-04T16:25:50;2.50;99.90
11264;DHT22;5689;48.798;9.070;2023-03-04T16:28:19;2.50;99.90
11264;DHT22;5689;48.798;9.070;2023-03-04T16:30:47;2.50;99.90
11264;DHT22;5689;48.798;9.070;2023-03-04T16:33:15;2.50;99.90
11264;DHT22;5689;48.798;9.070;2023-03-04T16:35:44;2.60;99.90